sensor_id;sensor_type;location;lat;lon;timestamp;pressure;altitude;pressure_sealevel;temperature;humidity
33795;BME280;51430;52.242;21.118;2022-08-21T00:01:05;99970.05;;;22.43;73.46
33795;BME280;51430;52.242;21.118;2022-08-21T00:03:34;99974.75;;;22.37;73.70
33795;BME280;51430;52.242;21.118;2022-08-21T00:06:04;99976.20;;;22.31;73.96
33795;BME280;51430;52.242;21.118;2022-08-21T00:08:33;99971.64;;;22.26;74.23
33795;BME280;51430;52.242;21.118;2022-08-21T00:11:03;99971.06;;;22.17;74.80
33795;BME280;51430;52.242;21.118;2022-08-21T00:13:33;99967.14;;;22.10;75.17
33795;BME280;51430;52.242;21.118;2022-08-21T00:16:02;99961.23;;;22.04;75.28
33795;BME280;51430;52.242;21.118;2022-08-21T00:18:31;99956.02;;;21.97;75.62
33795;BME280;51430;52.242;21.118;2022-08-21T00:21:00;99953.25;;;21.94;75.79
33795;BME280;51430;52.242;21.118;2022-08-21T00:23:28;99954.58;;;21.92;75.82
33795;BME280;51430;52.242;21.118;2022-08-21T00:25:56;99955.35;;;21.92;76.14
33795;BME280;51430;52.242;21.118;2022-08-21T00:28:24;99949.88;;;21.89;76.08
33795;BME280;51430;52.242;21.118;2022-08-21T00:30:52;99944.55;;;21.86;76.36
33795;BME280;51430;52.242;21.118;2022-08-21T00:33:20;99940.46;;;21.80;76.59
33795;BME280;51430;52.242;21.118;2022-08-21T00:35:49;99941.46;;;21.76;76.79
33795;BME280;51430;52.242;21.118;2022-08-21T00:38:17;99939.52;;;21.77;76.77
33795;BME280;51430;52.242;21.118;2022-08-21T00:40:55;99936.10;;;21.76;76.83
33795;BME280;51430;52.242;21.118;2022-08-21T00:43:31;99933.79;;;21.71;77.09
33795;BME280;51430;52.242;21.118;2022-08-21T00:46:00;99930.06;;;21.65;77.25
33795;BME280;51430;52.242;21.118;2022-08-21T00:48:29;99928.62;;;21.61;77.49
33795;BME280;51430;52.242;21.118;2022-08-21T00:51:22;99926.06;;;21.58;77.75
33795;BME280;51430;52.242;21.118;2022-08-21T00:53:56;99925.70;;;21.55;77.99
33795;BME280;51430;52.242;21.118;2022-08-21T00:56:27;99927.36;;;21.52;77.92
33795;BME280;51430;52.242;21.118;2022-08-21T00:59:02;99924.73;;;21.49;78.06
33795;BME280;51430;52.242;21.118;2022-08-21T01:01:31;99930.02;;;21.42;78.30
33795;BME280;51430;52.242;21.118;2022-08-21T01:03:59;99933.36;;;21.41;78.30
33795;BME280;51430;52.242;21.118;2022-08-21T01:06:27;99933.21;;;21.42;78.51
33795;BME280;51430;52.242;21.118;2022-08-21T01:08:55;99936.15;;;21.40;78.50
33795;BME280;51430;52.242;21.118;2022-08-21T01:11:24;99934.98;;;21.37;79.00
33795;BME280;51430;52.242;21.118;2022-08-21T01:13:53;99932.45;;;21.32;79.25
33795;BME280;51430;52.242;21.118;2022-08-21T01:16:22;99933.16;;;21.25;79.81
33795;BME280;51430;52.242;21.118;2022-08-21T01:18:51;99934.06;;;21.18;80.13
33795;BME280;51430;52.242;21.118;2022-08-21T01:21:22;99931.19;;;21.10;80.58
33795;BME280;51430;52.242;21.118;2022-08-21T01:23:56;99930.10;;;21.02;81.27
33795;BME280;51430;52.242;21.118;2022-08-21T01:26:29;99924.09;;;20.91;81.97
33795;BME280;51430;52.242;21.118;2022-08-21T01:29:09;99922.06;;;20.85;84.56
33795;BME280;51430;52.242;21.118;2022-08-21T01:31:40;99923.48;;;20.78;84.93
33795;BME280;51430;52.242;21.118;2022-08-21T01:34:09;99923.70;;;20.75;85.20
33795;BME280;51430;52.242;21.118;2022-08-21T01:36:38;99918.77;;;20.73;85.32
33795;BME280;51430;52.242;21.118;2022-08-21T01:39:06;99915.27;;;20.67;85.55
33795;BME280;51430;52.242;21.118;2022-08-21T01:41:35;99917.95;;;20.63;85.79
33795;BME280;51430;52.242;21.118;2022-08-21T01:44:03;99912.41;;;20.61;85.73
33795;BME280;51430;52.242;21.118;2022-08-21T01:46:32;99906.71;;;20.57;85.99
33795;BME280;51430;52.242;21.118;2022-08-21T01:49:00;99904.52;;;20.52;86.16
33795;BME280;51430;52.242;21.118;2022-08-21T01:51:28;99900.43;;;20.45;86.60
33795;BME280;51430;52.242;21.118;2022-08-21T01:53:57;99895.93;;;20.40;86.88
33795;BME280;51430;52.242;21.118;2022-08-21T01:56:25;99896.44;;;20.37;87.18
33795;BME280;51430;52.242;21.118;2022-08-21T01:58:55;99896.80;;;20.33;87.41
33795;BME280;51430;52.242;21.118;2022-08-21T02:01:23;99892.65;;;20.31;87.69
33795;BME280;51430;52.242;21.118;2022-08-21T02:03:52;99892.75;;;20.28;87.81
33795;BME280;51430;52.242;21.118;2022-08-21T02:06:20;99890.35;;;20.26;87.74
33795;BME280;51430;52.242;21.118;2022-08-21T02:08:48;99893.11;;;20.24;88.00
33795;BME280;51430;52.242;21.118;2022-08-21T02:11:19;99890.42;;;20.22;87.89
33795;BME280;51430;52.242;21.118;2022-08-21T02:13:48;99890.15;;;20.18;87.95
33795;BME280;51430;52.242;21.118;2022-08-21T02:16:16;99891.38;;;20.15;88.15
33795;BME280;51430;52.242;21.118;2022-08-21T02:18:46;99890.55;;;20.12;88.22
33795;BME280;51430;52.242;21.118;2022-08-21T02:21:17;99889.56;;;20.09;88.62
33795;BME280;51430;52.242;21.118;2022-08-21T02:23:45;99888.96;;;20.06;88.57
33795;BME280;51430;52.242;21.118;2022-08-21T02:26:13;99886.65;;;20.05;88.59
33795;BME280;51430;52.242;21.118;2022-08-21T02:28:41;99889.43;;;20.01;88.63
33795;BME280;51430;52.242;21.118;2022-08-21T02:31:10;99886.86;;;19.99;88.99
33795;BME280;51430;52.242;21.118;2022-08-21T02:33:39;99882.89;;;19.97;89.07
33795;BME280;51430;52.242;21.118;2022-08-21T02:36:09;99882.05;;;19.95;89.21
33795;BME280;51430;52.242;21.118;2022-08-21T02:38:40;99880.59;;;19.92;89.26
33795;BME280;51430;52.242;21.118;2022-08-21T02:41:14;99880.49;;;19.87;89.39
33795;BME280;51430;52.242;21.118;2022-08-21T02:43:43;99875.62;;;19.83;89.71
33795;BME280;51430;52.242;21.118;2022-08-21T02:46:14;99873.91;;;19.76;89.79
33795;BME280;51430;52.242;21.118;2022-08-21T02:48:43;99871.02;;;19.71;90.26
33795;BME280;51430;52.242;21.118;2022-08-21T02:51:15;99868.98;;;19.68;90.47
33795;BME280;51430;52.242;21.118;2022-08-21T02:53:46;99866.69;;;19.65;90.67
33795;BME280;51430;52.242;21.118;2022-08-21T02:56:18;99861.97;;;19.63;90.85
33795;BME280;51430;52.242;21.118;2022-08-21T02:58:52;99859.70;;;19.60;91.00
33795;BME280;51430;52.242;21.118;2022-08-21T03:01:20;99859.94;;;19.53;91.28
33795;BME280;51430;52.242;21.118;2022-08-21T03:03:49;99858.10;;;19.47;91.36
33795;BME280;51430;52.242;21.118;2022-08-21T03:06:20;99858.27;;;19.44;91.70
33795;BME280;51430;52.242;21.118;2022-08-21T03:08:49;99856.98;;;19.40;91.86
33795;BME280;51430;52.242;21.118;2022-08-21T03:11:18;99854.81;;;19.36;92.19
33795;BME280;51430;52.242;21.118;2022-08-21T03:13:48;99860.11;;;19.33;92.24
33795;BME280;51430;52.242;21.118;2022-08-21T03:16:16;99859.39;;;19.30;92.29
33795;BME280;51430;52.242;21.118;2022-08-21T03:18:44;99860.71;;;19.27;92.55
33795;BME280;51430;52.242;21.118;2022-08-21T03:21:12;99859.06;;;19.26;92.47
33795;BME280;51430;52.242;21.118;2022-08-21T03:23:41;99859.73;;;19.24;92.72
33795;BME280;51430;52.242;21.118;2022-08-21T03:26:10;99855.84;;;19.23;92.82
33795;BME280;51430;52.242;21.118;2022-08-21T03:28:39;99856.39;;;19.19;93.01
33795;BME280;51430;52.242;21.118;2022-08-21T03:31:07;99856.20;;;19.15;93.26
33795;BME280;51430;52.242;21.118;2022-08-21T03:33:36;99851.66;;;19.10;93.45
33795;BME280;51430;52.242;21.118;2022-08-21T03:36:07;99855.42;;;19.11;93.63
33795;BME280;51430;52.242;21.118;2022-08-21T03:38:37;99857.90;;;19.13;93.87
33795;BME280;51430;52.242;21.118;2022-08-21T03:41:06;99855.95;;;19.14;93.70
33795;BME280;51430;52.242;21.118;2022-08-21T03:43:36;99852.73;;;19.15;93.76
33795;BME280;51430;52.242;21.118;2022-08-21T03:46:05;99850.92;;;19.16;93.66
33795;BME280;51430;52.242;21.118;2022-08-21T03:48:35;99852.36;;;19.16;93.81
33795;BME280;51430;52.242;21.118;2022-08-21T03:51:05;99853.73;;;19.15;93.79
33795;BME280;51430;52.242;21.118;2022-08-21T03:53:34;99853.08;;;19.19;93.66
33795;BME280;51430;52.242;21.118;2022-08-21T03:56:03;99855.12;;;19.21;93.82
33795;BME280;51430;52.242;21.118;2022-08-21T03:58:32;99854.28;;;19.25;93.67
33795;BME280;51430;52.242;21.118;2022-08-21T04:01:01;99856.27;;;19.30;93.32
33795;BME280;51430;52.242;21.118;2022-08-21T04:03:30;99857.23;;;19.35;93.31
33795;BME280;51430;52.242;21.118;2022-08-21T04:05:58;99856.52;;;19.38;93.07
33795;BME280;51430;52.242;21.118;2022-08-21T04:08:26;99858.42;;;19.44;92.80
33795;BME280;51430;52.242;21.118;2022-08-21T04:10:56;99860.36;;;19.49;92.90
33795;BME280;51430;52.242;21.118;2022-08-21T04:13:25;99859.81;;;19.56;92.72
33795;BME280;51430;52.242;21.118;2022-08-21T04:15:56;99859.30;;;19.64;92.24
33795;BME280;51430;52.242;21.118;2022-08-21T04:18:26;99860.42;;;19.68;91.96
33795;BME280;51430;52.242;21.118;2022-08-21T04:20:56;99865.18;;;19.74;91.63
33795;BME280;51430;52.242;21.118;2022-08-21T04:23:26;99867.63;;;19.80;91.66
33795;BME280;51430;52.242;21.118;2022-08-21T04:25:56;99869.39;;;19.86;91.27
33795;BME280;51430;52.242;21.118;2022-08-21T04:28:26;99868.27;;;19.93;90.82
33795;BME280;51430;52.242;21.118;2022-08-21T04:30:58;99864.60;;;20.01;90.56
33795;BME280;51430;52.242;21.118;2022-08-21T04:33:26;99867.34;;;20.09;90.48
33795;BME280;51430;52.242;21.118;2022-08-21T04:35:54;99872.27;;;20.18;90.25
33795;BME280;51430;52.242;21.118;2022-08-21T04:38:22;99871.35;;;20.21;90.05
33795;BME280;51430;52.242;21.118;2022-08-21T04:40:51;99864.88;;;20.25;89.73
33795;BME280;51430;52.242;21.118;2022-08-21T04:43:20;99863.91;;;20.34;89.42
33795;BME280;51430;52.242;21.118;2022-08-21T04:45:52;99861.51;;;20.46;89.02
33795;BME280;51430;52.242;21.118;2022-08-21T04:48:22;99855.42;;;20.58;88.63
33795;BME280;51430;52.242;21.118;2022-08-21T04:56:06;99853.58;;;20.86;87.29
33795;BME280;51430;52.242;21.118;2022-08-21T04:58:37;99853.58;;;20.94;87.09
33795;BME280;51430;52.242;21.118;2022-08-21T05:01:08;99852.17;;;21.04;86.40
33795;BME280;51430;52.242;21.118;2022-08-21T05:03:38;99851.18;;;21.14;85.98
33795;BME280;51430;52.242;21.118;2022-08-21T05:06:08;99855.88;;;21.26;85.52
33795;BME280;51430;52.242;21.118;2022-08-21T05:08:38;99861.55;;;21.40;84.71
33795;BME280;51430;52.242;21.118;2022-08-21T05:11:07;99859.08;;;21.52;83.99
33795;BME280;51430;52.242;21.118;2022-08-21T05:13:35;99864.81;;;21.68;83.67
33795;BME280;51430;52.242;21.118;2022-08-21T05:16:04;99864.05;;;21.71;81.97
33795;BME280;51430;52.242;21.118;2022-08-21T05:18:32;99863.46;;;21.70;81.39
33795;BME280;51430;52.242;21.118;2022-08-21T05:21:00;99862.55;;;21.72;81.05
33795;BME280;51430;52.242;21.118;2022-08-21T05:23:28;99861.60;;;21.77;80.85
33795;BME280;51430;52.242;21.118;2022-08-21T05:25:56;99863.02;;;22.05;80.56
33795;BME280;51430;52.242;21.118;2022-08-21T05:28:25;99864.67;;;22.50;78.56
33795;BME280;51430;52.242;21.118;2022-08-21T05:30:54;99867.83;;;23.01;76.83
33795;BME280;51430;52.242;21.118;2022-08-21T05:33:22;99871.06;;;23.40;74.25
33795;BME280;51430;52.242;21.118;2022-08-21T05:35:53;99868.26;;;23.62;73.07
33795;BME280;51430;52.242;21.118;2022-08-21T05:38:25;99871.09;;;23.89;72.52
33795;BME280;51430;52.242;21.118;2022-08-21T05:40:55;99875.23;;;24.23;71.77
33795;BME280;51430;52.242;21.118;2022-08-21T05:43:23;99872.98;;;24.56;70.92
33795;BME280;51430;52.242;21.118;2022-08-21T05:45:51;99875.91;;;25.07;70.15
33795;BME280;51430;52.242;21.118;2022-08-21T05:48:23;99871.44;;;25.40;66.93
33795;BME280;51430;52.242;21.118;2022-08-21T05:50:52;99876.58;;;25.56;65.81
33795;BME280;51430;52.242;21.118;2022-08-21T05:53:21;99875.12;;;25.81;65.43
33795;BME280;51430;52.242;21.118;2022-08-21T05:55:51;99879.02;;;25.97;65.34
33795;BME280;51430;52.242;21.118;2022-08-21T05:58:21;99876.02;;;25.92;63.86
33795;BME280;51430;52.242;21.118;2022-08-21T06:00:51;99875.08;;;25.74;64.53
33795;BME280;51430;52.242;21.118;2022-08-21T06:03:27;99874.59;;;25.84;63.88
33795;BME280;51430;52.242;21.118;2022-08-21T06:05:56;99875.80;;;26.16;63.18
33795;BME280;51430;52.242;21.118;2022-08-21T06:08:24;99881.01;;;26.55;62.69
33795;BME280;51430;52.242;21.118;2022-08-21T06:10:54;99886.36;;;27.00;61.48
33795;BME280;51430;52.242;21.118;2022-08-21T06:13:23;99892.02;;;27.23;60.80
33795;BME280;51430;52.242;21.118;2022-08-21T06:16:11;99894.68;;;27.46;60.41
33795;BME280;51430;52.242;21.118;2022-08-21T06:18:44;99898.67;;;27.25;58.77
33795;BME280;51430;52.242;21.118;2022-08-21T06:21:14;99896.52;;;26.76;60.39
33795;BME280;51430;52.242;21.118;2022-08-21T06:23:43;99896.16;;;26.72;61.14
33795;BME280;51430;52.242;21.118;2022-08-21T06:26:13;99898.99;;;26.84;60.96
33795;BME280;51430;52.242;21.118;2022-08-21T06:28:42;99897.38;;;26.71;61.35
33795;BME280;51430;52.242;21.118;2022-08-21T06:31:19;99897.13;;;26.62;61.41
33795;BME280;51430;52.242;21.118;2022-08-21T06:33:48;99898.25;;;26.41;62.04
33795;BME280;51430;52.242;21.118;2022-08-21T06:36:17;99896.59;;;26.54;62.62
33795;BME280;51430;52.242;21.118;2022-08-21T06:38:45;99898.02;;;26.75;62.18
33795;BME280;51430;52.242;21.118;2022-08-21T06:41:19;99898.83;;;26.73;61.08
33795;BME280;51430;52.242;21.118;2022-08-21T06:43:54;99902.82;;;26.77;61.72
33795;BME280;51430;52.242;21.118;2022-08-21T06:46:26;99898.39;;;27.08;61.06
33795;BME280;51430;52.242;21.118;2022-08-21T06:48:55;99898.17;;;27.19;59.99
33795;BME280;51430;52.242;21.118;2022-08-21T06:51:24;99897.98;;;27.02;59.69
33795;BME280;51430;52.242;21.118;2022-08-21T06:53:56;99897.70;;;27.18;60.70
33795;BME280;51430;52.242;21.118;2022-08-21T06:56:26;99897.42;;;27.39;59.93
33795;BME280;51430;52.242;21.118;2022-08-21T06:58:54;99898.00;;;27.56;59.78
33795;BME280;51430;52.242;21.118;2022-08-21T07:01:24;99897.84;;;27.48;59.05
33795;BME280;51430;52.242;21.118;2022-08-21T07:03:53;99897.42;;;27.32;59.70
33795;BME280;51430;52.242;21.118;2022-08-21T07:06:21;99894.15;;;26.95;61.29
33795;BME280;51430;52.242;21.118;2022-08-21T07:08:49;99898.09;;;26.96;60.77
33795;BME280;51430;52.242;21.118;2022-08-21T07:11:22;99893.33;;;27.08;60.57
33795;BME280;51430;52.242;21.118;2022-08-21T07:13:52;99899.20;;;27.11;59.99
33795;BME280;51430;52.242;21.118;2022-08-21T07:16:22;99902.63;;;27.10;60.58
33795;BME280;51430;52.242;21.118;2022-08-21T07:18:51;99901.56;;;26.80;60.61
33795;BME280;51430;52.242;21.118;2022-08-21T07:21:19;99906.42;;;26.68;60.90
33795;BME280;51430;52.242;21.118;2022-08-21T07:23:53;99907.91;;;26.80;60.99
33795;BME280;51430;52.242;21.118;2022-08-21T07:26:22;99910.40;;;26.73;61.29
33795;BME280;51430;52.242;21.118;2022-08-21T07:28:52;99909.09;;;27.19;60.74
33795;BME280;51430;52.242;21.118;2022-08-21T07:31:23;99906.66;;;27.68;59.93
33795;BME280;51430;52.242;21.118;2022-08-21T07:33:52;99905.42;;;28.20;58.68
33795;BME280;51430;52.242;21.118;2022-08-21T07:36:20;99908.36;;;28.58;58.38
33795;BME280;51430;52.242;21.118;2022-08-21T07:38:48;99908.11;;;28.81;56.77
33795;BME280;51430;52.242;21.118;2022-08-21T07:41:23;99905.01;;;29.12;56.73
33795;BME280;51430;52.242;21.118;2022-08-21T07:43:52;99905.13;;;29.41;56.01
33795;BME280;51430;52.242;21.118;2022-08-21T07:46:21;99905.50;;;29.63;54.34
33795;BME280;51430;52.242;21.118;2022-08-21T07:48:49;99901.81;;;29.68;54.25
33795;BME280;51430;52.242;21.118;2022-08-21T07:51:26;99904.39;;;30.03;53.66
33795;BME280;51430;52.242;21.118;2022-08-21T07:53:56;99903.08;;;30.60;53.13
33795;BME280;51430;52.242;21.118;2022-08-21T07:56:26;99898.21;;;30.34;51.65
33795;BME280;51430;52.242;21.118;2022-08-21T07:58:54;99890.05;;;30.22;53.26
33795;BME280;51430;52.242;21.118;2022-08-21T08:01:25;99888.74;;;30.42;52.12
33795;BME280;51430;52.242;21.118;2022-08-21T08:03:54;99886.24;;;30.51;51.35
33795;BME280;51430;52.242;21.118;2022-08-21T08:06:23;99886.23;;;30.55;51.08
33795;BME280;51430;52.242;21.118;2022-08-21T08:08:52;99889.73;;;30.98;51.35
33795;BME280;51430;52.242;21.118;2022-08-21T08:11:20;99889.68;;;31.61;50.03
33795;BME280;51430;52.242;21.118;2022-08-21T08:13:51;99891.34;;;32.02;48.65
33795;BME280;51430;52.242;21.118;2022-08-21T08:16:19;99891.01;;;32.00;47.72
33795;BME280;51430;52.242;21.118;2022-08-21T08:18:47;99885.07;;;31.71;48.57
33795;BME280;51430;52.242;21.118;2022-08-21T08:21:15;99884.32;;;31.63;49.11
33795;BME280;51430;52.242;21.118;2022-08-21T08:23:44;99884.66;;;32.17;48.61
33795;BME280;51430;52.242;21.118;2022-08-21T08:26:12;99888.98;;;32.73;47.85
33795;BME280;51430;52.242;21.118;2022-08-21T08:28:43;99888.17;;;33.42;46.46
33795;BME280;51430;52.242;21.118;2022-08-21T08:31:12;99882.38;;;33.75;45.53
33795;BME280;51430;52.242;21.118;2022-08-21T08:33:40;99883.35;;;33.77;44.27
33795;BME280;51430;52.242;21.118;2022-08-21T08:36:16;99883.70;;;33.41;44.21
33795;BME280;51430;52.242;21.118;2022-08-21T08:38:47;99881.44;;;32.26;45.98
33795;BME280;51430;52.242;21.118;2022-08-21T08:41:19;99878.77;;;31.62;47.39
33795;BME280;51430;52.242;21.118;2022-08-21T08:44:03;99880.25;;;32.33;47.73
33795;BME280;51430;52.242;21.118;2022-08-21T08:49:14;99884.66;;;34.30;44.00
33795;BME280;51430;52.242;21.118;2022-08-21T08:51:57;99886.15;;;35.01;42.28
33795;BME280;51430;52.242;21.118;2022-08-21T08:54:32;99882.98;;;35.46;41.42
33795;BME280;51430;52.242;21.118;2022-08-21T08:57:03;99881.48;;;35.43;39.61
33795;BME280;51430;52.242;21.118;2022-08-21T08:59:46;99875.63;;;33.90;41.46
33795;BME280;51430;52.242;21.118;2022-08-21T09:02:16;99878.91;;;33.88;42.30
33795;BME280;51430;52.242;21.118;2022-08-21T09:04:47;99879.80;;;34.51;40.76
33795;BME280;51430;52.242;21.118;2022-08-21T09:10:19;99878.21;;;34.69;41.75
33795;BME280;51430;52.242;21.118;2022-08-21T09:15:41;99878.91;;;34.47;40.39
33795;BME280;51430;52.242;21.118;2022-08-21T09:26:11;99874.98;;;34.50;40.33
33795;BME280;51430;52.242;21.118;2022-08-21T09:28:40;99872.98;;;33.83;42.00
33795;BME280;51430;52.242;21.118;2022-08-21T09:31:21;99870.73;;;34.68;41.22
33795;BME280;51430;52.242;21.118;2022-08-21T09:33:49;99874.43;;;36.15;39.31
33795;BME280;51430;52.242;21.118;2022-08-21T09:36:47;99882.80;;;37.23;37.69
33795;BME280;51430;52.242;21.118;2022-08-21T09:42:00;99882.64;;;36.36;38.72
33795;BME280;51430;52.242;21.118;2022-08-21T09:44:34;99873.38;;;35.38;40.15
33795;BME280;51430;52.242;21.118;2022-08-21T09:47:07;99870.88;;;34.89;41.12
33795;BME280;51430;52.242;21.118;2022-08-21T09:49:41;99875.84;;;34.94;41.71
33795;BME280;51430;52.242;21.118;2022-08-21T09:52:21;99869.41;;;35.51;40.29
33795;BME280;51430;52.242;21.118;2022-08-21T09:54:54;99871.77;;;36.16;38.37
33795;BME280;51430;52.242;21.118;2022-08-21T09:57:49;99873.60;;;37.08;37.22
33795;BME280;51430;52.242;21.118;2022-08-21T10:02:50;99864.38;;;36.34;36.77
33795;BME280;51430;52.242;21.118;2022-08-21T10:05:26;99866.91;;;36.96;36.68
33795;BME280;51430;52.242;21.118;2022-08-21T10:07:54;99864.95;;;37.91;36.30
33795;BME280;51430;52.242;21.118;2022-08-21T10:10:26;99869.54;;;37.34;36.11
33795;BME280;51430;52.242;21.118;2022-08-21T10:16:07;99861.25;;;34.93;39.23
33795;BME280;51430;52.242;21.118;2022-08-21T10:18:46;99859.40;;;34.30;40.50
33795;BME280;51430;52.242;21.118;2022-08-21T10:24:29;99854.36;;;34.79;38.47
33795;BME280;51430;52.242;21.118;2022-08-21T10:27:22;99855.64;;;34.76;39.01
33795;BME280;51430;52.242;21.118;2022-08-21T10:30:07;99852.61;;;34.67;39.51
33795;BME280;51430;52.242;21.118;2022-08-21T10:32:54;99853.84;;;34.44;39.67
33795;BME280;51430;52.242;21.118;2022-08-21T10:47:27;99847.59;;;31.34;45.47
33795;BME280;51430;52.242;21.118;2022-08-21T10:53:33;99842.71;;;31.27;45.30
33795;BME280;51430;52.242;21.118;2022-08-21T10:56:19;99841.71;;;30.83;46.62
33795;BME280;51430;52.242;21.118;2022-08-21T11:04:26;99838.28;;;30.94;47.73
33795;BME280;51430;52.242;21.118;2022-08-21T11:07:21;99839.42;;;31.22;46.60
33795;BME280;51430;52.242;21.118;2022-08-21T11:09:54;99836.63;;;30.70;46.32
33795;BME280;51430;52.242;21.118;2022-08-21T11:12:50;99835.27;;;30.64;47.03
33795;BME280;51430;52.242;21.118;2022-08-21T11:15:38;99832.27;;;30.76;47.00
33795;BME280;51430;52.242;21.118;2022-08-21T11:18:22;99829.53;;;31.12;46.91
33795;BME280;51430;52.242;21.118;2022-08-21T11:21:20;99834.85;;;32.85;44.34
33795;BME280;51430;52.242;21.118;2022-08-21T11:24:03;99838.94;;;35.40;39.58
33795;BME280;51430;52.242;21.118;2022-08-21T11:26:57;99843.18;;;36.86;36.20
33795;BME280;51430;52.242;21.118;2022-08-21T11:29:33;99842.07;;;36.65;34.90
33795;BME280;51430;52.242;21.118;2022-08-21T11:42:45;99841.33;;;38.53;34.24
33795;BME280;51430;52.242;21.118;2022-08-21T11:45:31;99849.25;;;39.57;32.72
33795;BME280;51430;52.242;21.118;2022-08-21T11:48:27;99849.63;;;40.32;32.12
33795;BME280;51430;52.242;21.118;2022-08-21T11:50:59;99851.02;;;40.82;30.49
33795;BME280;51430;52.242;21.118;2022-08-21T11:53:43;99855.36;;;40.72;31.00
33795;BME280;51430;52.242;21.118;2022-08-21T11:56:30;99852.22;;;40.20;31.46
33795;BME280;51430;52.242;21.118;2022-08-21T11:59:05;99857.17;;;40.67;31.28
33795;BME280;51430;52.242;21.118;2022-08-21T12:01:50;99853.66;;;41.44;30.02
33795;BME280;51430;52.242;21.118;2022-08-21T12:04:31;99851.63;;;40.61;30.28
33795;BME280;51430;52.242;21.118;2022-08-21T12:07:41;99851.90;;;41.15;30.77
33795;BME280;51430;52.242;21.118;2022-08-21T12:10:13;99848.47;;;39.98;31.44
33795;BME280;51430;52.242;21.118;2022-08-21T12:12:44;99840.17;;;38.40;33.80
33795;BME280;51430;52.242;21.118;2022-08-21T12:15:23;99841.29;;;37.44;34.98
33795;BME280;51430;52.242;21.118;2022-08-21T12:21:25;99833.87;;;37.04;35.85
33795;BME280;51430;52.242;21.118;2022-08-21T12:26:38;99838.63;;;39.00;33.38
33795;BME280;51430;52.242;21.118;2022-08-21T12:32:02;99840.34;;;39.35;31.52
33795;BME280;51430;52.242;21.118;2022-08-21T12:34:45;99832.86;;;38.12;33.12
33795;BME280;51430;52.242;21.118;2022-08-21T12:37:40;99829.53;;;37.97;33.33
33795;BME280;51430;52.242;21.118;2022-08-21T12:42:50;99827.27;;;37.50;33.81
33795;BME280;51430;52.242;21.118;2022-08-21T12:45:37;99823.19;;;37.44;33.92
33795;BME280;51430;52.242;21.118;2022-08-21T12:53:49;99840.10;;;40.41;31.01
33795;BME280;51430;52.242;21.118;2022-08-21T12:56:20;99836.91;;;39.05;32.23
33795;BME280;51430;52.242;21.118;2022-08-21T12:59:11;99833.48;;;37.55;34.03
33795;BME280;51430;52.242;21.118;2022-08-21T13:01:48;99835.59;;;36.61;35.64
33795;BME280;51430;52.242;21.118;2022-08-21T13:04:25;99830.66;;;36.11;37.12
33795;BME280;51430;52.242;21.118;2022-08-21T13:06:55;99825.48;;;35.50;38.40
33795;BME280;51430;52.242;21.118;2022-08-21T13:09:29;99822.39;;;34.98;38.60
33795;BME280;51430;52.242;21.118;2022-08-21T13:11:59;99822.88;;;34.94;39.12
33795;BME280;51430;52.242;21.118;2022-08-21T13:14:55;99825.80;;;35.01;38.87
33795;BME280;51430;52.242;21.118;2022-08-21T13:17:26;99823.27;;;34.79;38.86
33795;BME280;51430;52.242;21.118;2022-08-21T13:20:02;99822.38;;;34.29;39.44
33795;BME280;51430;52.242;21.118;2022-08-21T13:22:31;99822.11;;;34.03;40.63
33795;BME280;51430;52.242;21.118;2022-08-21T13:25:03;99817.77;;;33.91;41.38
33795;BME280;51430;52.242;21.118;2022-08-21T13:27:37;99821.20;;;34.58;40.54
33795;BME280;51430;52.242;21.118;2022-08-21T13:30:11;99827.03;;;36.07;38.21
33795;BME280;51430;52.242;21.118;2022-08-21T13:32:43;99829.78;;;37.49;36.15
33795;BME280;51430;52.242;21.118;2022-08-21T13:35:36;99828.38;;;38.37;35.11
33795;BME280;51430;52.242;21.118;2022-08-21T13:38:16;99831.89;;;38.71;34.26
33795;BME280;51430;52.242;21.118;2022-08-21T13:40:49;99830.87;;;38.74;33.58
33795;BME280;51430;52.242;21.118;2022-08-21T13:43:27;99831.39;;;38.98;33.57
33795;BME280;51430;52.242;21.118;2022-08-21T13:45:57;99836.33;;;39.00;32.60
33795;BME280;51430;52.242;21.118;2022-08-21T13:48:30;99828.71;;;38.16;33.35
33795;BME280;51430;52.242;21.118;2022-08-21T13:50:59;99830.86;;;37.55;33.91
33795;BME280;51430;52.242;21.118;2022-08-21T13:53:30;99830.12;;;37.12;35.16
33795;BME280;51430;52.242;21.118;2022-08-21T13:56:00;99829.63;;;36.79;35.39
33795;BME280;51430;52.242;21.118;2022-08-21T13:58:46;99827.89;;;36.50;36.57
33795;BME280;51430;52.242;21.118;2022-08-21T14:01:19;99822.70;;;37.26;35.32
33795;BME280;51430;52.242;21.118;2022-08-21T14:03:50;99826.41;;;38.09;34.64
33795;BME280;51430;52.242;21.118;2022-08-21T14:06:24;99827.55;;;38.37;33.64
33795;BME280;51430;52.242;21.118;2022-08-21T14:09:33;99827.70;;;38.65;33.72
33795;BME280;51430;52.242;21.118;2022-08-21T14:12:17;99831.39;;;38.90;33.42
33795;BME280;51430;52.242;21.118;2022-08-21T14:14:51;99833.17;;;39.06;32.71
33795;BME280;51430;52.242;21.118;2022-08-21T14:17:41;99831.98;;;38.95;32.31
33795;BME280;51430;52.242;21.118;2022-08-21T14:20:25;99834.56;;;39.16;31.86
33795;BME280;51430;52.242;21.118;2022-08-21T14:22:54;99831.88;;;39.58;31.78
33795;BME280;51430;52.242;21.118;2022-08-21T14:27:58;99836.71;;;39.90;30.83
33795;BME280;51430;52.242;21.118;2022-08-21T14:32:56;99833.70;;;38.98;31.50
33795;BME280;51430;52.242;21.118;2022-08-21T14:35:25;99834.54;;;38.97;31.70
33795;BME280;51430;52.242;21.118;2022-08-21T14:37:53;99832.91;;;39.35;31.29
33795;BME280;51430;52.242;21.118;2022-08-21T14:40:24;99835.82;;;39.78;30.78
33795;BME280;51430;52.242;21.118;2022-08-21T14:42:56;99837.31;;;40.23;29.84
33795;BME280;51430;52.242;21.118;2022-08-21T14:45:28;99837.18;;;40.99;29.57